sensor_id;sensor_type;location;lat;lon;timestamp;P1;durP1;ratioP1;P2;durP2;ratioP2
46463;SDS011;32161;48.148;-1.554;2022-07-06T00:01:18;5.07;;;1.35;;
46463;SDS011;32161;48.148;-1.554;2022-07-06T00:03:45;5.75;;;1.17;;
46463;SDS011;32161;48.148;-1.554;2022-07-06T00:06:12;8.10;;;1.45;;
46463;SDS011;32161;48.148;-1.554;2022-07-06T00:08:42;3.38;;;1.55;;
46463;SDS011;32161;48.148;-1.554;2022-07-06T00:11:09;2.85;;;1.10;;
46463;SDS011;32161;48.148;-1.554;2022-07-06T00:13:37;3.58;;;1.40;;
46463;SDS011;32161;48.148;-1.554;2022-07-06T00:16:04;5.97;;;1.20;;
46463;SDS011;32161;48.148;-1.554;2022-07-06T00:18:33;4.55;;;1.17;;
46463;SDS011;32161;48.148;-1.554;2022-07-06T00:21:00;5.15;;;1.15;;
46463;SDS011;32161;48.148;-1.554;2022-07-06T00:23:28;6.30;;;1.30;;
46463;SDS011;32161;48.148;-1.554;2022-07-06T00:25:55;5.20;;;1.23;;
46463;SDS011;32161;48.148;-1.554;2022-07-06T00:28:23;7.07;;;1.17;;
46463;SDS011;32161;48.148;-1.554;2022-07-06T00:30:50;4.03;;;1.42;;
46463;SDS011;32161;48.148;-1.554;2022-07-06T00:33:18;7.10;;;1.35;;
46463;SDS011;32161;48.148;-1.554;2022-07-06T00:35:46;7.63;;;1.20;;
46463;SDS011;32161;48.148;-1.554;2022-07-06T00:38:14;1.80;;;0.98;;
46463;SDS011;32161;48.148;-1.554;2022-07-06T00:40:41;4.45;;;1.38;;
46463;SDS011;32161;48.148;-1.554;2022-07-06T00:43:08;6.32;;;2.58;;
46463;SDS011;32161;48.148;-1.554;2022-07-06T00:45:36;4.68;;;1.17;;
46463;SDS011;32161;48.148;-1.554;2022-07-06T00:48:03;4.10;;;1.60;;
46463;SDS011;32161;48.148;-1.554;2022-07-06T00:50:31;5.05;;;1.20;;
46463;SDS011;32161;48.148;-1.554;2022-07-06T00:53:01;6.78;;;1.20;;
46463;SDS011;32161;48.148;-1.554;2022-07-06T00:55:31;2.38;;;0.88;;
46463;SDS011;32161;48.148;-1.554;2022-07-06T00:58:00;3.10;;;0.93;;
46463;SDS011;32161;48.148;-1.554;2022-07-06T01:00:30;1.63;;;1.17;;
46463;SDS011;32161;48.148;-1.554;2022-07-06T01:02:58;3.90;;;1.58;;
46463;SDS011;32161;48.148;-1.554;2022-07-06T01:05:26;2.33;;;1.10;;
46463;SDS011;32161;48.148;-1.554;2022-07-06T01:07:54;3.00;;;0.85;;
46463;SDS011;32161;48.148;-1.554;2022-07-06T01:10:24;2.72;;;1.20;;
46463;SDS011;32161;48.148;-1.554;2022-07-06T01:12:51;1.42;;;1.13;;
46463;SDS011;32161;48.148;-1.554;2022-07-06T01:15:19;3.28;;;1.25;;
46463;SDS011;32161;48.148;-1.554;2022-07-06T01:17:48;2.38;;;1.33;;
46463;SDS011;32161;48.148;-1.554;2022-07-06T01:20:17;3.33;;;1.00;;
46463;SDS011;32161;48.148;-1.554;2022-07-06T01:22:46;1.95;;;0.93;;
46463;SDS011;32161;48.148;-1.554;2022-07-06T01:25:15;5.47;;;1.15;;
46463;SDS011;32161;48.148;-1.554;2022-07-06T01:27:43;6.53;;;1.42;;
46463;SDS011;32161;48.148;-1.554;2022-07-06T01:30:11;2.35;;;1.20;;
46463;SDS011;32161;48.148;-1.554;2022-07-06T01:32:40;2.78;;;1.33;;
46463;SDS011;32161;48.148;-1.554;2022-07-06T01:35:10;1.98;;;1.23;;
46463;SDS011;32161;48.148;-1.554;2022-07-06T01:37:41;2.35;;;0.82;;
46463;SDS011;32161;48.148;-1.554;2022-07-06T01:40:09;7.97;;;1.55;;
46463;SDS011;32161;48.148;-1.554;2022-07-06T01:42:38;1.67;;;0.77;;
46463;SDS011;32161;48.148;-1.554;2022-07-06T01:45:06;2.85;;;1.17;;
46463;SDS011;32161;48.148;-1.554;2022-07-06T01:47:35;2.17;;;1.10;;
46463;SDS011;32161;48.148;-1.554;2022-07-06T01:50:04;4.90;;;1.35;;
46463;SDS011;32161;48.148;-1.554;2022-07-06T01:52:34;3.53;;;1.10;;
46463;SDS011;32161;48.148;-1.554;2022-07-06T01:55:03;2.88;;;1.45;;
46463;SDS011;32161;48.148;-1.554;2022-07-06T01:57:31;4.70;;;1.05;;
46463;SDS011;32161;48.148;-1.554;2022-07-06T01:59:58;4.88;;;1.20;;
46463;SDS011;32161;48.148;-1.554;2022-07-06T02:02:25;4.50;;;1.33;;
46463;SDS011;32161;48.148;-1.554;2022-07-06T02:04:52;2.88;;;1.33;;
46463;SDS011;32161;48.148;-1.554;2022-07-06T02:07:19;4.55;;;1.20;;
46463;SDS011;32161;48.148;-1.554;2022-07-06T02:09:46;2.97;;;1.00;;
46463;SDS011;32161;48.148;-1.554;2022-07-06T02:12:15;3.85;;;1.50;;
46463;SDS011;32161;48.148;-1.554;2022-07-06T02:14:42;6.32;;;1.80;;
46463;SDS011;32161;48.148;-1.554;2022-07-06T02:17:09;3.00;;;1.70;;
46463;SDS011;32161;48.148;-1.554;2022-07-06T02:19:36;4.88;;;1.13;;
46463;SDS011;32161;48.148;-1.554;2022-07-06T02:22:03;4.32;;;1.20;;
46463;SDS011;32161;48.148;-1.554;2022-07-06T02:24:30;3.58;;;1.70;;
46463;SDS011;32161;48.148;-1.554;2022-07-06T02:26:57;2.25;;;1.23;;
46463;SDS011;32161;48.148;-1.554;2022-07-06T02:29:26;4.43;;;1.38;;
46463;SDS011;32161;48.148;-1.554;2022-07-06T02:31:53;4.15;;;1.70;;
46463;SDS011;32161;48.148;-1.554;2022-07-06T02:34:20;6.82;;;1.73;;
46463;SDS011;32161;48.148;-1.554;2022-07-06T02:36:47;3.75;;;1.40;;
46463;SDS011;32161;48.148;-1.554;2022-07-06T02:39:14;5.93;;;1.77;;
46463;SDS011;32161;48.148;-1.554;2022-07-06T02:41:41;5.13;;;1.92;;
46463;SDS011;32161;48.148;-1.554;2022-07-06T02:44:08;4.18;;;1.80;;
46463;SDS011;32161;48.148;-1.554;2022-07-06T02:46:37;4.93;;;1.83;;
46463;SDS011;32161;48.148;-1.554;2022-07-06T02:49:04;5.32;;;1.50;;
46463;SDS011;32161;48.148;-1.554;2022-07-06T02:51:31;4.15;;;1.60;;
46463;SDS011;32161;48.148;-1.554;2022-07-06T02:53:58;7.63;;;1.90;;
46463;SDS011;32161;48.148;-1.554;2022-07-06T02:56:25;4.13;;;1.83;;
46463;SDS011;32161;48.148;-1.554;2022-07-06T02:58:53;4.65;;;2.20;;
46463;SDS011;32161;48.148;-1.554;2022-07-06T03:01:20;6.00;;;1.85;;
46463;SDS011;32161;48.148;-1.554;2022-07-06T03:03:48;3.63;;;2.28;;
46463;SDS011;32161;48.148;-1.554;2022-07-06T03:06:15;3.15;;;1.95;;
46463;SDS011;32161;48.148;-1.554;2022-07-06T03:08:42;4.40;;;1.77;;
46463;SDS011;32161;48.148;-1.554;2022-07-06T03:11:09;5.18;;;1.70;;
46463;SDS011;32161;48.148;-1.554;2022-07-06T03:13:37;4.03;;;1.77;;
46463;SDS011;32161;48.148;-1.554;2022-07-06T03:16:04;7.60;;;1.73;;
46463;SDS011;32161;48.148;-1.554;2022-07-06T03:18:31;4.90;;;2.03;;
46463;SDS011;32161;48.148;-1.554;2022-07-06T03:20:59;5.90;;;2.08;;
46463;SDS011;32161;48.148;-1.554;2022-07-06T03:23:29;6.88;;;1.92;;
46463;SDS011;32161;48.148;-1.554;2022-07-06T03:25:56;4.32;;;2.25;;
46463;SDS011;32161;48.148;-1.554;2022-07-06T03:28:24;5.95;;;2.33;;
46463;SDS011;32161;48.148;-1.554;2022-07-06T03:30:51;5.00;;;2.17;;
46463;SDS011;32161;48.148;-1.554;2022-07-06T03:33:18;2.17;;;2.03;;
46463;SDS011;32161;48.148;-1.554;2022-07-06T03:35:45;4.05;;;2.17;;
46463;SDS011;32161;48.148;-1.554;2022-07-06T03:38:14;5.63;;;2.22;;
46463;SDS011;32161;48.148;-1.554;2022-07-06T03:40:41;5.40;;;2.15;;
46463;SDS011;32161;48.148;-1.554;2022-07-06T03:43:08;3.80;;;2.30;;
46463;SDS011;32161;48.148;-1.554;2022-07-06T03:45:35;3.83;;;2.28;;
46463;SDS011;32161;48.148;-1.554;2022-07-06T03:48:02;5.68;;;1.90;;
46463;SDS011;32161;48.148;-1.554;2022-07-06T03:50:30;5.18;;;2.03;;
46463;SDS011;32161;48.148;-1.554;2022-07-06T03:52:57;7.45;;;2.17;;
46463;SDS011;32161;48.148;-1.554;2022-07-06T03:55:26;7.63;;;2.22;;
46463;SDS011;32161;48.148;-1.554;2022-07-06T03:57:53;8.15;;;2.40;;
46463;SDS011;32161;48.148;-1.554;2022-07-06T04:00:20;7.78;;;2.50;;
46463;SDS011;32161;48.148;-1.554;2022-07-06T04:02:47;5.95;;;2.17;;
46463;SDS011;32161;48.148;-1.554;2022-07-06T04:05:14;5.28;;;2.20;;
46463;SDS011;32161;48.148;-1.554;2022-07-06T04:10:13;5.57;;;2.28;;
46463;SDS011;32161;48.148;-1.554;2022-07-06T04:12:41;8.07;;;2.42;;
46463;SDS011;32161;48.148;-1.554;2022-07-06T04:15:10;2.92;;;2.20;;
46463;SDS011;32161;48.148;-1.554;2022-07-06T04:17:38;6.88;;;2.50;;
46463;SDS011;32161;48.148;-1.554;2022-07-06T04:20:21;7.25;;;3.42;;
46463;SDS011;32161;48.148;-1.554;2022-07-06T04:22:50;2.45;;;2.10;;
46463;SDS011;32161;48.148;-1.554;2022-07-06T04:25:18;6.57;;;3.28;;
46463;SDS011;32161;48.148;-1.554;2022-07-06T04:27:47;5.25;;;2.60;;
46463;SDS011;32161;48.148;-1.554;2022-07-06T04:30:14;3.22;;;2.90;;
46463;SDS011;32161;48.148;-1.554;2022-07-06T04:32:41;4.15;;;2.70;;
46463;SDS011;32161;48.148;-1.554;2022-07-06T04:35:08;3.20;;;2.85;;
46463;SDS011;32161;48.148;-1.554;2022-07-06T04:37:37;3.33;;;2.70;;
46463;SDS011;32161;48.148;-1.554;2022-07-06T04:40:04;2.45;;;2.25;;
46463;SDS011;32161;48.148;-1.554;2022-07-06T04:42:32;3.63;;;2.97;;
46463;SDS011;32161;48.148;-1.554;2022-07-06T04:45:01;3.22;;;2.67;;
46463;SDS011;32161;48.148;-1.554;2022-07-06T04:47:28;5.07;;;2.63;;
46463;SDS011;32161;48.148;-1.554;2022-07-06T04:49:55;2.70;;;2.50;;
46463;SDS011;32161;48.148;-1.554;2022-07-06T04:52:22;8.57;;;2.50;;
46463;SDS011;32161;48.148;-1.554;2022-07-06T04:54:49;2.20;;;2.10;;
46463;SDS011;32161;48.148;-1.554;2022-07-06T04:57:16;4.07;;;2.85;;
46463;SDS011;32161;48.148;-1.554;2022-07-06T04:59:43;5.35;;;2.35;;
46463;SDS011;32161;48.148;-1.554;2022-07-06T05:02:12;2.50;;;2.28;;
46463;SDS011;32161;48.148;-1.554;2022-07-06T05:04:39;2.53;;;2.33;;
46463;SDS011;32161;48.148;-1.554;2022-07-06T05:07:06;2.85;;;2.40;;
46463;SDS011;32161;48.148;-1.554;2022-07-06T05:09:33;2.65;;;2.40;;
46463;SDS011;32161;48.148;-1.554;2022-07-06T05:12:00;3.05;;;2.00;;
46463;SDS011;32161;48.148;-1.554;2022-07-06T05:14:27;2.95;;;2.05;;
46463;SDS011;32161;48.148;-1.554;2022-07-06T05:16:54;1.92;;;1.83;;
46463;SDS011;32161;48.148;-1.554;2022-07-06T05:19:22;2.65;;;2.22;;
46463;SDS011;32161;48.148;-1.554;2022-07-06T05:21:50;2.17;;;2.03;;
46463;SDS011;32161;48.148;-1.554;2022-07-06T05:24:17;1.90;;;1.80;;
46463;SDS011;32161;48.148;-1.554;2022-07-06T05:26:44;1.92;;;1.77;;
46463;SDS011;32161;48.148;-1.554;2022-07-06T05:29:12;2.17;;;2.08;;
46463;SDS011;32161;48.148;-1.554;2022-07-06T05:31:39;2.40;;;2.30;;
46463;SDS011;32161;48.148;-1.554;2022-07-06T05:34:06;2.17;;;2.08;;
46463;SDS011;32161;48.148;-1.554;2022-07-06T05:36:35;2.40;;;2.20;;
46463;SDS011;32161;48.148;-1.554;2022-07-06T05:39:02;2.05;;;1.98;;
46463;SDS011;32161;48.148;-1.554;2022-07-06T05:41:29;2.95;;;2.00;;
46463;SDS011;32161;48.148;-1.554;2022-07-06T05:43:56;3.45;;;2.20;;
46463;SDS011;32161;48.148;-1.554;2022-07-06T05:46:24;1.77;;;1.67;;
46463;SDS011;32161;48.148;-1.554;2022-07-06T05:48:51;1.70;;;1.60;;
46463;SDS011;32161;48.148;-1.554;2022-07-06T05:51:37;2.35;;;1.75;;
46463;SDS011;32161;48.148;-1.554;2022-07-06T05:54:04;3.17;;;1.92;;
46463;SDS011;32161;48.148;-1.554;2022-07-06T05:56:32;2.45;;;2.03;;
46463;SDS011;32161;48.148;-1.554;2022-07-06T05:58:59;4.45;;;2.38;;
46463;SDS011;32161;48.148;-1.554;2022-07-06T06:01:26;4.78;;;2.10;;
46463;SDS011;32161;48.148;-1.554;2022-07-06T06:03:53;2.38;;;2.20;;
46463;SDS011;32161;48.148;-1.554;2022-07-06T06:06:20;2.17;;;1.88;;
46463;SDS011;32161;48.148;-1.554;2022-07-06T06:08:49;3.45;;;2.15;;
46463;SDS011;32161;48.148;-1.554;2022-07-06T06:11:16;5.03;;;2.25;;
46463;SDS011;32161;48.148;-1.554;2022-07-06T06:13:43;3.45;;;2.05;;
46463;SDS011;32161;48.148;-1.554;2022-07-06T06:16:10;6.07;;;2.00;;
46463;SDS011;32161;48.148;-1.554;2022-07-06T06:18:37;2.25;;;2.03;;
46463;SDS011;32161;48.148;-1.554;2022-07-06T06:21:04;2.55;;;2.05;;
46463;SDS011;32161;48.148;-1.554;2022-07-06T06:23:31;2.58;;;1.63;;
46463;SDS011;32161;48.148;-1.554;2022-07-06T06:25:59;1.75;;;1.63;;
46463;SDS011;32161;48.148;-1.554;2022-07-06T06:28:27;1.65;;;1.55;;
46463;SDS011;32161;48.148;-1.554;2022-07-06T06:30:54;2.33;;;1.50;;
46463;SDS011;32161;48.148;-1.554;2022-07-06T06:33:21;3.92;;;1.73;;
46463;SDS011;32161;48.148;-1.554;2022-07-06T06:35:48;1.58;;;1.48;;
46463;SDS011;32161;48.148;-1.554;2022-07-06T06:38:17;1.98;;;1.52;;
46463;SDS011;32161;48.148;-1.554;2022-07-06T06:40:47;5.00;;;1.55;;
46463;SDS011;32161;48.148;-1.554;2022-07-06T06:43:15;1.60;;;1.20;;
46463;SDS011;32161;48.148;-1.554;2022-07-06T06:45:42;2.90;;;1.50;;
46463;SDS011;32161;48.148;-1.554;2022-07-06T06:48:11;3.15;;;1.30;;
46463;SDS011;32161;48.148;-1.554;2022-07-06T06:50:38;4.25;;;1.25;;
46463;SDS011;32161;48.148;-1.554;2022-07-06T06:53:05;2.30;;;1.70;;
46463;SDS011;32161;48.148;-1.554;2022-07-06T06:55:32;2.33;;;1.05;;
46463;SDS011;32161;48.148;-1.554;2022-07-06T06:58:00;1.65;;;0.93;;
46463;SDS011;32161;48.148;-1.554;2022-07-06T07:00:28;2.13;;;1.02;;
46463;SDS011;32161;48.148;-1.554;2022-07-06T07:02:55;2.35;;;1.10;;
46463;SDS011;32161;48.148;-1.554;2022-07-06T07:05:22;2.17;;;1.08;;
46463;SDS011;32161;48.148;-1.554;2022-07-06T07:07:50;1.50;;;1.00;;
46463;SDS011;32161;48.148;-1.554;2022-07-06T07:10:17;2.63;;;0.98;;
46463;SDS011;32161;48.148;-1.554;2022-07-06T07:12:44;1.50;;;0.98;;
46463;SDS011;32161;48.148;-1.554;2022-07-06T07:15:13;5.15;;;1.10;;
46463;SDS011;32161;48.148;-1.554;2022-07-06T07:17:41;1.17;;;0.80;;
46463;SDS011;32161;48.148;-1.554;2022-07-06T07:20:10;1.70;;;1.60;;
46463;SDS011;32161;48.148;-1.554;2022-07-06T07:22:38;3.53;;;0.93;;
46463;SDS011;32161;48.148;-1.554;2022-07-06T07:25:05;3.72;;;1.30;;
46463;SDS011;32161;48.148;-1.554;2022-07-06T07:27:33;3.72;;;1.20;;
46463;SDS011;32161;48.148;-1.554;2022-07-06T07:30:00;4.18;;;1.48;;
46463;SDS011;32161;48.148;-1.554;2022-07-06T07:32:28;3.25;;;0.90;;
46463;SDS011;32161;48.148;-1.554;2022-07-06T07:34:57;4.38;;;1.00;;
46463;SDS011;32161;48.148;-1.554;2022-07-06T07:37:24;4.03;;;0.98;;
46463;SDS011;32161;48.148;-1.554;2022-07-06T07:39:51;4.97;;;2.00;;
46463;SDS011;32161;48.148;-1.554;2022-07-06T07:42:18;3.67;;;1.10;;
46463;SDS011;32161;48.148;-1.554;2022-07-06T07:44:45;1.80;;;0.90;;
46463;SDS011;32161;48.148;-1.554;2022-07-06T07:47:12;0.80;;;0.80;;
46463;SDS011;32161;48.148;-1.554;2022-07-06T07:49:40;3.70;;;0.80;;
46463;SDS011;32161;48.148;-1.554;2022-07-06T07:52:09;5.53;;;1.20;;
46463;SDS011;32161;48.148;-1.554;2022-07-06T07:54:36;5.03;;;1.30;;
46463;SDS011;32161;48.148;-1.554;2022-07-06T07:57:04;1.92;;;0.90;;
46463;SDS011;32161;48.148;-1.554;2022-07-06T07:59:31;5.53;;;1.10;;
46463;SDS011;32161;48.148;-1.554;2022-07-06T08:01:58;4.53;;;1.20;;
46463;SDS011;32161;48.148;-1.554;2022-07-06T08:04:26;1.73;;;1.02;;
46463;SDS011;32161;48.148;-1.554;2022-07-06T08:06:53;1.95;;;1.05;;
46463;SDS011;32161;48.148;-1.554;2022-07-06T08:09:21;10.98;;;2.30;;
46463;SDS011;32161;48.148;-1.554;2022-07-06T08:11:49;2.75;;;0.98;;
46463;SDS011;32161;48.148;-1.554;2022-07-06T08:14:16;3.72;;;1.23;;
46463;SDS011;32161;48.148;-1.554;2022-07-06T08:16:43;4.97;;;1.40;;
46463;SDS011;32161;48.148;-1.554;2022-07-06T08:19:10;1.17;;;1.10;;
46463;SDS011;32161;48.148;-1.554;2022-07-06T08:21:40;1.83;;;1.02;;
46463;SDS011;32161;48.148;-1.554;2022-07-06T08:24:07;5.32;;;1.33;;
46463;SDS011;32161;48.148;-1.554;2022-07-06T08:26:36;1.85;;;1.02;;
46463;SDS011;32161;48.148;-1.554;2022-07-06T08:29:03;1.67;;;1.10;;
46463;SDS011;32161;48.148;-1.554;2022-07-06T08:31:31;3.22;;;1.10;;
46463;SDS011;32161;48.148;-1.554;2022-07-06T08:33:59;5.22;;;1.10;;
46463;SDS011;32161;48.148;-1.554;2022-07-06T08:36:26;4.60;;;1.10;;
46463;SDS011;32161;48.148;-1.554;2022-07-06T08:38:54;5.07;;;1.05;;
46463;SDS011;32161;48.148;-1.554;2022-07-06T08:41:21;1.38;;;1.05;;
46463;SDS011;32161;48.148;-1.554;2022-07-06T08:43:52;1.98;;;1.15;;
46463;SDS011;32161;48.148;-1.554;2022-07-06T08:46:20;5.22;;;1.10;;
46463;SDS011;32161;48.148;-1.554;2022-07-06T08:48:48;2.50;;;1.35;;
46463;SDS011;32161;48.148;-1.554;2022-07-06T08:51:16;3.15;;;1.30;;
46463;SDS011;32161;48.148;-1.554;2022-07-06T08:53:44;2.42;;;1.08;;
46463;SDS011;32161;48.148;-1.554;2022-07-06T08:56:13;3.97;;;1.80;;
46463;SDS011;32161;48.148;-1.554;2022-07-06T08:58:42;2.97;;;1.60;;
46463;SDS011;32161;48.148;-1.554;2022-07-06T09:01:11;4.35;;;1.65;;
46463;SDS011;32161;48.148;-1.554;2022-07-06T09:03:40;1.92;;;1.15;;
46463;SDS011;32161;48.148;-1.554;2022-07-06T09:06:07;7.00;;;1.17;;
46463;SDS011;32161;48.148;-1.554;2022-07-06T09:08:36;3.65;;;2.03;;
46463;SDS011;32161;48.148;-1.554;2022-07-06T09:11:03;2.47;;;0.98;;
46463;SDS011;32161;48.148;-1.554;2022-07-06T09:13:30;2.15;;;1.30;;
46463;SDS011;32161;48.148;-1.554;2022-07-06T09:16:08;3.15;;;1.25;;
46463;SDS011;32161;48.148;-1.554;2022-07-06T09:18:38;3.58;;;1.35;;
46463;SDS011;32161;48.148;-1.554;2022-07-06T09:21:07;1.38;;;0.82;;
46463;SDS011;32161;48.148;-1.554;2022-07-06T09:23:35;1.15;;;0.90;;
46463;SDS011;32161;48.148;-1.554;2022-07-06T09:26:03;1.90;;;1.13;;
46463;SDS011;32161;48.148;-1.554;2022-07-06T09:28:41;1.02;;;0.80;;
46463;SDS011;32161;48.148;-1.554;2022-07-06T09:31:08;2.15;;;1.13;;
46463;SDS011;32161;48.148;-1.554;2022-07-06T09:33:37;3.83;;;1.08;;
46463;SDS011;32161;48.148;-1.554;2022-07-06T09:36:05;2.15;;;1.10;;
46463;SDS011;32161;48.148;-1.554;2022-07-06T09:38:32;3.42;;;1.00;;
46463;SDS011;32161;48.148;-1.554;2022-07-06T09:40:59;3.65;;;1.55;;
46463;SDS011;32161;48.148;-1.554;2022-07-06T09:43:28;3.33;;;1.13;;
46463;SDS011;32161;48.148;-1.554;2022-07-06T09:45:58;2.22;;;1.00;;
46463;SDS011;32161;48.148;-1.554;2022-07-06T09:48:27;2.42;;;1.17;;
46463;SDS011;32161;48.148;-1.554;2022-07-06T09:50:55;3.00;;;1.20;;
46463;SDS011;32161;48.148;-1.554;2022-07-06T09:53:24;2.25;;;0.85;;
46463;SDS011;32161;48.148;-1.554;2022-07-06T09:55:54;2.40;;;1.00;;
46463;SDS011;32161;48.148;-1.554;2022-07-06T09:58:23;1.88;;;1.10;;
46463;SDS011;32161;48.148;-1.554;2022-07-06T10:00:51;1.10;;;1.00;;
46463;SDS011;32161;48.148;-1.554;2022-07-06T10:03:18;1.10;;;1.00;;
46463;SDS011;32161;48.148;-1.554;2022-07-06T10:05:47;3.00;;;1.10;;
46463;SDS011;32161;48.148;-1.554;2022-07-06T10:08:15;2.38;;;1.00;;
46463;SDS011;32161;48.148;-1.554;2022-07-06T10:10:43;2.08;;;0.98;;
46463;SDS011;32161;48.148;-1.554;2022-07-06T10:13:11;2.75;;;1.48;;
46463;SDS011;32161;48.148;-1.554;2022-07-06T10:15:40;5.03;;;1.33;;
46463;SDS011;32161;48.148;-1.554;2022-07-06T10:18:08;1.10;;;0.75;;
46463;SDS011;32161;48.148;-1.554;2022-07-06T10:20:36;0.88;;;0.75;;
46463;SDS011;32161;48.148;-1.554;2022-07-06T10:23:07;3.28;;;1.05;;
46463;SDS011;32161;48.148;-1.554;2022-07-06T10:25:35;1.58;;;1.00;;
46463;SDS011;32161;48.148;-1.554;2022-07-06T10:28:02;1.50;;;1.00;;
46463;SDS011;32161;48.148;-1.554;2022-07-06T10:30:39;3.63;;;0.70;;
46463;SDS011;32161;48.148;-1.554;2022-07-06T10:33:07;2.35;;;0.80;;
46463;SDS011;32161;48.148;-1.554;2022-07-06T10:35:35;2.05;;;0.80;;
46463;SDS011;32161;48.148;-1.554;2022-07-06T10:40:35;1.48;;;0.80;;
46463;SDS011;32161;48.148;-1.554;2022-07-06T10:43:23;1.23;;;0.77;;
46463;SDS011;32161;48.148;-1.554;2022-07-06T10:45:57;0.65;;;0.65;;
46463;SDS011;32161;48.148;-1.554;2022-07-06T10:48:24;2.28;;;0.65;;
46463;SDS011;32161;48.148;-1.554;2022-07-06T10:51:00;0.75;;;0.75;;
46463;SDS011;32161;48.148;-1.554;2022-07-06T10:53:31;0.70;;;0.63;;
46463;SDS011;32161;48.148;-1.554;2022-07-06T10:56:02;1.20;;;0.60;;
46463;SDS011;32161;48.148;-1.554;2022-07-06T10:58:34;1.08;;;0.90;;
46463;SDS011;32161;48.148;-1.554;2022-07-06T11:01:06;0.95;;;0.50;;
46463;SDS011;32161;48.148;-1.554;2022-07-06T11:03:36;2.30;;;0.90;;
46463;SDS011;32161;48.148;-1.554;2022-07-06T11:06:07;1.85;;;0.98;;
46463;SDS011;32161;48.148;-1.554;2022-07-06T11:08:53;3.97;;;0.75;;
46463;SDS011;32161;48.148;-1.554;2022-07-06T11:11:23;1.45;;;0.52;;
46463;SDS011;32161;48.148;-1.554;2022-07-06T11:13:53;0.63;;;0.50;;
46463;SDS011;32161;48.148;-1.554;2022-07-06T11:16:27;0.95;;;0.60;;
46463;SDS011;32161;48.148;-1.554;2022-07-06T11:19:03;3.88;;;0.70;;
46463;SDS011;32161;48.148;-1.554;2022-07-06T11:21:36;1.73;;;0.60;;
46463;SDS011;32161;48.148;-1.554;2022-07-06T11:24:13;1.20;;;0.63;;
46463;SDS011;32161;48.148;-1.554;2022-07-06T11:29:12;1.77;;;0.60;;
46463;SDS011;32161;48.148;-1.554;2022-07-06T11:31:40;1.52;;;0.85;;
46463;SDS011;32161;48.148;-1.554;2022-07-06T11:34:09;0.73;;;0.52;;
46463;SDS011;32161;48.148;-1.554;2022-07-06T11:36:39;1.00;;;0.60;;
46463;SDS011;32161;48.148;-1.554;2022-07-06T11:39:07;1.80;;;0.95;;
46463;SDS011;32161;48.148;-1.554;2022-07-06T11:41:35;0.68;;;0.60;;
46463;SDS011;32161;48.148;-1.554;2022-07-06T11:44:03;1.73;;;0.85;;
46463;SDS011;32161;48.148;-1.554;2022-07-06T11:46:31;2.00;;;0.57;;
46463;SDS011;32161;48.148;-1.554;2022-07-06T11:49:00;0.90;;;0.52;;
46463;SDS011;32161;48.148;-1.554;2022-07-06T11:51:31;0.93;;;0.60;;
46463;SDS011;32161;48.148;-1.554;2022-07-06T11:54:01;1.55;;;0.73;;
46463;SDS011;32161;48.148;-1.554;2022-07-06T11:56:36;1.60;;;0.60;;
46463;SDS011;32161;48.148;-1.554;2022-07-06T11:59:11;1.20;;;0.50;;
46463;SDS011;32161;48.148;-1.554;2022-07-06T12:01:38;1.02;;;0.60;;
46463;SDS011;32161;48.148;-1.554;2022-07-06T12:04:09;2.05;;;0.60;;
46463;SDS011;32161;48.148;-1.554;2022-07-06T12:06:37;0.63;;;0.63;;
46463;SDS011;32161;48.148;-1.554;2022-07-06T12:09:04;2.30;;;0.70;;
46463;SDS011;32161;48.148;-1.554;2022-07-06T12:11:32;0.70;;;0.60;;
46463;SDS011;32161;48.148;-1.554;2022-07-06T12:14:02;1.17;;;0.93;;
46463;SDS011;32161;48.148;-1.554;2022-07-06T12:16:40;0.68;;;0.50;;
46463;SDS011;32161;48.148;-1.554;2022-07-06T12:19:07;0.63;;;0.60;;
46463;SDS011;32161;48.148;-1.554;2022-07-06T12:21:36;0.75;;;0.75;;
46463;SDS011;32161;48.148;-1.554;2022-07-06T12:24:10;0.40;;;0.40;;
46463;SDS011;32161;48.148;-1.554;2022-07-06T12:26:45;0.63;;;0.60;;
46463;SDS011;32161;48.148;-1.554;2022-07-06T12:29:13;1.23;;;0.55;;
46463;SDS011;32161;48.148;-1.554;2022-07-06T12:31:42;1.02;;;0.43;;
46463;SDS011;32161;48.148;-1.554;2022-07-06T12:34:14;1.17;;;0.50;;
46463;SDS011;32161;48.148;-1.554;2022-07-06T12:36:44;2.53;;;0.60;;
46463;SDS011;32161;48.148;-1.554;2022-07-06T12:39:14;1.08;;;0.60;;
46463;SDS011;32161;48.148;-1.554;2022-07-06T12:41:44;1.30;;;0.57;;
46463;SDS011;32161;48.148;-1.554;2022-07-06T12:44:15;0.95;;;0.50;;
46463;SDS011;32161;48.148;-1.554;2022-07-06T12:46:44;1.45;;;0.57;;
46463;SDS011;32161;48.148;-1.554;2022-07-06T12:49:14;1.60;;;0.60;;
46463;SDS011;32161;48.148;-1.554;2022-07-06T12:51:51;0.70;;;0.55;;
46463;SDS011;32161;48.148;-1.554;2022-07-06T12:54:25;1.48;;;0.50;;
46463;SDS011;32161;48.148;-1.554;2022-07-06T12:56:59;9.95;;;1.20;;
46463;SDS011;32161;48.148;-1.554;2022-07-06T12:59:32;0.45;;;0.45;;
46463;SDS011;32161;48.148;-1.554;2022-07-06T13:02:05;2.08;;;1.02;;
46463;SDS011;32161;48.148;-1.554;2022-07-06T13:04:35;2.85;;;0.90;;
46463;SDS011;32161;48.148;-1.554;2022-07-06T13:07:03;0.85;;;0.70;;
46463;SDS011;32161;48.148;-1.554;2022-07-06T13:09:31;2.05;;;0.63;;
46463;SDS011;32161;48.148;-1.554;2022-07-06T13:11:58;2.47;;;0.50;;
46463;SDS011;32161;48.148;-1.554;2022-07-06T13:14:25;0.77;;;0.52;;
46463;SDS011;32161;48.148;-1.554;2022-07-06T13:16:54;2.30;;;0.93;;
46463;SDS011;32161;48.148;-1.554;2022-07-06T13:19:21;2.22;;;0.82;;
46463;SDS011;32161;48.148;-1.554;2022-07-06T13:21:48;1.23;;;0.47;;
46463;SDS011;32161;48.148;-1.554;2022-07-06T13:24:15;0.77;;;0.60;;
46463;SDS011;32161;48.148;-1.554;2022-07-06T13:26:43;0.85;;;0.55;;
46463;SDS011;32161;48.148;-1.554;2022-07-06T13:29:11;2.20;;;1.40;;
46463;SDS011;32161;48.148;-1.554;2022-07-06T13:31:39;2.67;;;0.73;;
46463;SDS011;32161;48.148;-1.554;2022-07-06T13:34:08;0.90;;;0.80;;
46463;SDS011;32161;48.148;-1.554;2022-07-06T13:36:35;1.17;;;0.90;;
46463;SDS011;32161;48.148;-1.554;2022-07-06T13:39:02;1.50;;;0.70;;
46463;SDS011;32161;48.148;-1.554;2022-07-06T13:41:30;3.50;;;0.50;;
46463;SDS011;32161;48.148;-1.554;2022-07-06T13:43:57;1.15;;;0.73;;
46463;SDS011;32161;48.148;-1.554;2022-07-06T13:46:25;1.50;;;0.40;;
46463;SDS011;32161;48.148;-1.554;2022-07-06T13:48:53;0.50;;;0.50;;
46463;SDS011;32161;48.148;-1.554;2022-07-06T13:51:23;1.65;;;0.57;;
46463;SDS011;32161;48.148;-1.554;2022-07-06T13:53:52;2.45;;;0.60;;
46463;SDS011;32161;48.148;-1.554;2022-07-06T13:56:19;2.55;;;0.63;;
46463;SDS011;32161;48.148;-1.554;2022-07-06T13:58:46;0.70;;;0.52;;
46463;SDS011;32161;48.148;-1.554;2022-07-06T14:01:14;2.05;;;0.47;;
46463;SDS011;32161;48.148;-1.554;2022-07-06T14:03:41;0.50;;;0.50;;
46463;SDS011;32161;48.148;-1.554;2022-07-06T14:06:08;0.60;;;0.60;;
46463;SDS011;32161;48.148;-1.554;2022-07-06T14:08:38;1.25;;;0.40;;
46463;SDS011;32161;48.148;-1.554;2022-07-06T14:11:06;1.48;;;0.63;;
46463;SDS011;32161;48.148;-1.554;2022-07-06T14:13:34;0.80;;;0.47;;
46463;SDS011;32161;48.148;-1.554;2022-07-06T14:16:03;2.28;;;0.60;;
46463;SDS011;32161;48.148;-1.554;2022-07-06T14:18:31;0.63;;;0.40;;
46463;SDS011;32161;48.148;-1.554;2022-07-06T14:20:59;0.77;;;0.50;;
46463;SDS011;32161;48.148;-1.554;2022-07-06T14:23:26;1.58;;;0.52;;
46463;SDS011;32161;48.148;-1.554;2022-07-06T14:25:56;0.30;;;0.30;;
46463;SDS011;32161;48.148;-1.554;2022-07-06T14:28:23;3.58;;;0.52;;
46463;SDS011;32161;48.148;-1.554;2022-07-06T14:30:51;4.70;;;0.60;;
46463;SDS011;32161;48.148;-1.554;2022-07-06T14:33:18;1.30;;;0.50;;
46463;SDS011;32161;48.148;-1.554;2022-07-06T14:35:46;1.85;;;0.73;;
46463;SDS011;32161;48.148;-1.554;2022-07-06T14:38:15;0.95;;;0.40;;
46463;SDS011;32161;48.148;-1.554;2022-07-06T14:40:46;0.57;;;0.45;;
46463;SDS011;32161;48.148;-1.554;2022-07-06T14:43:16;0.47;;;0.38;;
46463;SDS011;32161;48.148;-1.554;2022-07-06T14:45:43;0.65;;;0.55;;
46463;SDS011;32161;48.148;-1.554;2022-07-06T14:48:11;0.47;;;0.47;;